Time;durP1;ratioP1;P1;durP2;ratioP2;P2;SDS_P1;SDS_P2;PMS_P1;PMS_P2;Temp;Humidity;BMP_temperature;BMP_pressure;BME280_temperature;BME280_humidity;BME280_pressure;Samples;Min_cycle;Max_cycle;Signal;HPM_P1;HPM_P2
2024/04/20 00:01:36;;;;;;;5.72;3.13;;;8.10;92.00;;;;;;5464212;26;20002;-73
2024/04/20 00:04:02;;;;;;;6.25;3.05;;;7.90;91.90;;;;;;5465270;26;20010;-73
2024/04/20 00:06:28;;;;;;;5.07;2.67;;;7.80;92.10;;;;;;5467717;26;20047;-73
2024/04/20 00:08:54;;;;;;;6.05;3.20;;;7.80;92.70;;;;;;5465504;26;20335;-72
2024/04/20 00:11:20;;;;;;;4.50;2.40;;;7.60;92.40;;;;;;5464162;26;20010;-73
2024/04/20 00:13:49;;;;;;;4.97;2.72;;;7.50;92.80;;;;;;5464868;26;19998;-73
2024/04/20 00:16:15;;;;;;;6.28;3.13;;;7.30;92.90;;;;;;5465281;26;20006;-73
2024/04/20 00:18:41;;;;;;;5.63;3.35;;;7.50;92.60;;;;;;5464713;26;20067;-73
2024/04/20 00:21:08;;;;;;;6.43;3.40;;;7.60;92.70;;;;;;5465214;26;20441;-73
2024/04/20 00:23:33;;;;;;;7.15;3.42;;;7.60;92.40;;;;;;5465149;26;20009;-72
2024/04/20 00:26:06;;;;;;;5.38;2.88;;;7.50;92.30;;;;;;5464482;26;20002;-73
2024/04/20 00:28:32;;;;;;;7.15;3.47;;;7.50;92.50;;;;;;5466155;26;20005;-73
2024/04/20 00:31:01;;;;;;;6.75;3.65;;;7.40;92.70;;;;;;5462913;26;20006;-73
2024/04/20 00:33:28;;;;;;;7.35;3.60;;;7.40;92.70;;;;;;5465007;26;20049;-73
2024/04/20 00:35:53;;;;;;;6.22;3.33;;;7.30;93.00;;;;;;5466378;26;20006;-73
2024/04/20 00:38:19;;;;;;;5.32;3.25;;;7.40;93.00;;;;;;5465229;26;20045;-73
2024/04/20 00:40:58;;;;;;;5.90;3.35;;;7.10;93.40;;;;;;5463718;26;20018;-73
2024/04/20 00:43:23;;;;;;;5.30;2.70;;;7.20;93.70;;;;;;5462973;26;20099;-73
2024/04/20 00:45:51;;;;;;;8.05;2.67;;;7.30;93.90;;;;;;5465676;26;20018;-73
2024/04/20 00:48:19;;;;;;;3.28;1.48;;;7.70;94.00;;;;;;5467424;26;20006;-73
2024/04/20 00:50:45;;;;;;;2.63;1.27;;;8.00;94.90;;;;;;5462847;26;20002;-73
2024/04/20 00:53:14;;;;;;;3.33;1.30;;;8.20;94.60;;;;;;5463558;26;20002;-73
2024/04/20 00:55:41;;;;;;;4.50;2.35;;;8.10;94.30;;;;;;5465988;26;20018;-73
2024/04/20 00:58:09;;;;;;;4.40;2.17;;;7.80;94.30;;;;;;5464484;26;20010;-73
2024/04/20 01:00:40;;;;;;;4.47;2.17;;;7.50;94.50;;;;;;5459777;26;20359;-73
2024/04/20 01:03:06;;;;;;;4.72;2.15;;;7.20;95.20;;;;;;5466536;26;20009;-73
2024/04/20 01:05:32;;;;;;;4.70;2.80;;;7.30;95.20;;;;;;5466164;26;20018;-72
2024/04/20 01:07:59;;;;;;;5.68;2.38;;;7.10;95.00;;;;;;5465559;26;20014;-73
2024/04/20 01:10:24;;;;;;;6.82;2.53;;;7.30;94.80;;;;;;5464835;26;20360;-73
2024/04/20 01:12:59;;;;;;;5.53;2.47;;;7.10;95.00;;;;;;5465041;26;19998;-73
2024/04/20 01:15:25;;;;;;;5.07;2.70;;;7.10;95.10;;;;;;5464847;26;20025;-73
2024/04/20 01:17:50;;;;;;;5.40;2.35;;;6.80;95.50;;;;;;5466306;26;20340;-73
2024/04/20 01:20:18;;;;;;;6.43;2.60;;;7.00;95.20;;;;;;5465509;26;20094;-73
2024/04/20 01:22:44;;;;;;;6.50;2.30;;;6.80;95.70;;;;;;5466609;26;20014;-73
2024/04/20 01:25:10;;;;;;;5.97;2.80;;;6.70;95.80;;;;;;5464351;26;20848;-73
2024/04/20 01:27:38;;;;;;;5.57;2.25;;;6.70;96.40;;;;;;5463067;26;20001;-73
2024/04/20 01:30:08;;;;;;;5.78;3.17;;;6.50;96.40;;;;;;5465015;26;19998;-72
2024/04/20 01:32:34;;;;;;;5.85;2.80;;;6.50;96.70;;;;;;5465103;26;20002;-73
2024/04/20 01:35:00;;;;;;;4.25;2.30;;;6.60;96.80;;;;;;5464748;26;20021;-73
2024/04/20 01:37:25;;;;;;;4.43;2.10;;;6.70;96.60;;;;;;5463124;26;20033;-73
2024/04/20 01:39:51;;;;;;;4.03;1.90;;;6.90;96.50;;;;;;5464593;26;20020;-73
2024/04/20 01:42:17;;;;;;;3.47;1.55;;;7.00;96.50;;;;;;5465011;26;20013;-73
2024/04/20 01:44:42;;;;;;;3.60;1.50;;;7.30;96.60;;;;;;5464230;26;20017;-73
2024/04/20 01:47:08;;;;;;;4.78;1.63;;;7.50;96.50;;;;;;5464177;26;20006;-73
2024/04/20 01:49:33;;;;;;;3.17;1.73;;;7.40;96.50;;;;;;5464877;26;20082;-73
2024/04/20 01:51:59;;;;;;;3.40;1.70;;;7.30;97.00;;;;;;5463193;26;20348;-73
2024/04/20 01:54:25;;;;;;;4.88;1.73;;;7.50;97.00;;;;;;5461558;26;20002;-73
2024/04/20 01:56:51;;;;;;;3.38;1.70;;;7.30;96.90;;;;;;5464040;26;20050;-73
2024/04/20 01:59:17;;;;;;;4.22;1.50;;;7.40;96.90;;;;;;5462309;26;20002;-73
2024/04/20 02:01:46;;;;;;;3.75;1.85;;;7.40;97.10;;;;;;5462325;26;20006;-73
2024/04/20 02:04:12;;;;;;;5.18;2.13;;;7.20;97.30;;;;;;5464390;26;20017;-73
2024/04/20 02:06:37;;;;;;;2.70;1.45;;;7.20;96.90;;;;;;5464342;26;20018;-73
2024/04/20 02:09:03;;;;;;;3.08;1.55;;;7.20;97.10;;;;;;5464118;26;19994;-73
2024/04/20 02:11:28;;;;;;;5.20;1.85;;;7.00;97.50;;;;;;5463975;26;20070;-73
2024/04/20 02:13:54;;;;;;;5.22;1.85;;;7.00;97.40;;;;;;5466048;26;19998;-73
2024/04/20 02:16:20;;;;;;;4.47;1.80;;;6.80;97.30;;;;;;5463932;26;20626;-73
2024/04/20 02:18:46;;;;;;;5.10;2.42;;;6.80;97.40;;;;;;5461427;26;20339;-73
2024/04/20 02:21:11;;;;;;;4.60;1.90;;;6.50;98.00;;;;;;5465560;26;20018;-73
2024/04/20 02:23:43;;;;;;;3.38;2.03;;;6.40;98.60;;;;;;5461645;26;21641;-73
2024/04/20 02:26:09;;;;;;;4.95;2.05;;;6.30;98.60;;;;;;5460765;26;20040;-73
2024/04/20 02:28:35;;;;;;;3.97;1.98;;;6.30;99.00;;;;;;5463262;26;20010;-73
2024/04/20 02:31:00;;;;;;;2.97;1.38;;;6.50;99.00;;;;;;5465112;26;20010;-73
2024/04/20 02:33:26;;;;;;;4.22;1.73;;;6.50;98.80;;;;;;5464592;26;20005;-73
2024/04/20 02:35:52;;;;;;;3.85;2.00;;;6.50;99.10;;;;;;5459919;26;20083;-73
2024/04/20 02:38:18;;;;;;;3.95;1.65;;;6.70;98.80;;;;;;5459417;26;20047;-73
2024/04/20 02:40:45;;;;;;;2.85;1.40;;;6.70;98.70;;;;;;5461904;26;20010;-73
2024/04/20 02:43:11;;;;;;;3.13;1.50;;;6.80;98.70;;;;;;5463998;26;20322;-73
2024/04/20 02:45:36;;;;;;;2.55;1.48;;;6.40;99.00;;;;;;5464895;26;20030;-73
2024/04/20 02:48:02;;;;;;;5.57;1.90;;;6.30;99.60;;;;;;5463759;26;20574;-73
2024/04/20 02:50:28;;;;;;;3.67;1.58;;;6.10;99.90;;;;;;5465218;26;20006;-73
2024/04/20 02:52:54;;;;;;;8.43;1.80;;;6.20;99.90;;;;;;5460764;26;20058;-73
2024/04/20 02:55:19;;;;;;;2.90;1.50;;;6.50;99.90;;;;;;5461278;26;22228;-73
2024/04/20 02:57:48;;;;;;;2.85;1.35;;;6.60;99.60;;;;;;5461784;26;20024;-73
2024/04/20 03:00:14;;;;;;;6.43;1.77;;;6.60;99.90;;;;;;5463063;26;19998;-73
2024/04/20 03:02:40;;;;;;;5.57;1.85;;;6.60;99.90;;;;;;5459107;26;20006;-73
2024/04/20 03:05:05;;;;;;;2.63;1.50;;;6.50;99.80;;;;;;5456410;26;19990;-73
2024/04/20 03:07:31;;;;;;;2.80;1.55;;;6.60;99.90;;;;;;5453232;26;20017;-73
2024/04/20 03:09:56;;;;;;;2.90;1.33;;;6.50;99.50;;;;;;5455591;26;20009;-73
2024/04/20 03:12:23;;;;;;;3.75;1.63;;;6.30;99.90;;;;;;5455638;26;20555;-73
2024/04/20 03:14:51;;;;;;;2.35;1.40;;;6.20;99.90;;;;;;5457038;26;19994;-73
2024/04/20 03:17:17;;;;;;;5.38;1.30;;;6.20;99.90;;;;;;5453025;26;20010;-73
2024/04/20 03:19:43;;;;;;;3.17;1.65;;;6.40;99.90;;;;;;5453518;26;20010;-73
2024/04/20 03:22:10;;;;;;;2.72;1.25;;;6.40;99.90;;;;;;5454948;26;19998;-73
2024/04/20 03:24:37;;;;;;;3.35;1.42;;;6.60;99.80;;;;;;5456252;26;20034;-73
2024/04/20 03:27:02;;;;;;;4.28;1.10;;;6.90;99.70;;;;;;5453971;26;20010;-73
2024/04/20 03:29:28;;;;;;;3.10;1.15;;;7.10;99.60;;;;;;5454938;26;20110;-73
2024/04/20 03:31:54;;;;;;;2.65;1.48;;;7.10;99.40;;;;;;5454909;26;20013;-73
2024/04/20 03:34:19;;;;;;;2.75;1.13;;;7.00;99.30;;;;;;5455133;26;20049;-73
2024/04/20 03:36:45;;;;;;;5.63;1.60;;;6.90;99.70;;;;;;5453729;26;20017;-73
2024/04/20 03:39:11;;;;;;;4.63;1.45;;;6.90;99.40;;;;;;5453590;26;20006;-73
2024/04/20 03:41:37;;;;;;;2.67;1.55;;;6.60;99.70;;;;;;5455309;26;20081;-73
2024/04/20 03:44:03;;;;;;;4.93;1.80;;;6.50;99.90;;;;;;5456909;26;20735;-73
2024/04/20 03:46:31;;;;;;;4.75;1.80;;;6.40;99.60;;;;;;5451681;26;20006;-73
2024/04/20 03:48:58;;;;;;;2.55;1.38;;;6.40;99.90;;;;;;5451250;26;20031;-73
2024/04/20 03:51:24;;;;;;;2.97;1.27;;;6.50;99.90;;;;;;5455655;26;20061;-73
2024/04/20 03:53:50;;;;;;;3.63;1.48;;;6.40;99.90;;;;;;5456375;26;20847;-72
2024/04/20 03:56:15;;;;;;;3.20;1.42;;;6.50;99.90;;;;;;5457657;26;20042;-73
2024/04/20 03:58:41;;;;;;;7.45;1.45;;;6.50;99.80;;;;;;5453290;26;20021;-73
2024/04/20 04:01:07;;;;;;;2.33;0.95;;;6.80;99.50;;;;;;5451339;26;20006;-72
2024/04/20 04:03:33;;;;;;;2.45;1.13;;;6.90;99.80;;;;;;5451832;26;20063;-72
2024/04/20 04:05:59;;;;;;;4.15;1.40;;;6.70;99.50;;;;;;5449735;26;20010;-72
2024/04/20 04:08:25;;;;;;;2.92;1.20;;;6.50;99.70;;;;;;5450534;26;20047;-72
2024/04/20 04:10:51;;;;;;;2.92;1.08;;;6.40;99.90;;;;;;5453803;26;20014;-73
2024/04/20 04:13:17;;;;;;;4.25;1.27;;;6.30;99.90;;;;;;5452290;26;20534;-73
2024/04/20 04:15:43;;;;;;;2.35;1.15;;;6.40;99.90;;;;;;5456942;26;20622;-72
2024/04/20 04:18:10;;;;;;;3.67;1.20;;;6.80;99.90;;;;;;5453886;26;20006;-73
2024/04/20 04:20:36;;;;;;;2.95;1.40;;;6.50;99.90;;;;;;5455809;26;20002;-73
2024/04/20 04:23:02;;;;;;;2.35;1.27;;;6.20;99.90;;;;;;5454472;26;20017;-73
2024/04/20 04:25:31;;;;;;;3.08;1.00;;;6.20;99.90;;;;;;5453366;26;20584;-73
2024/04/20 04:28:00;;;;;;;2.83;1.40;;;6.10;99.90;;;;;;5456437;26;20005;-73
2024/04/20 04:30:25;;;;;;;5.25;1.85;;;5.80;99.90;;;;;;5456753;26;20774;-72
2024/04/20 04:32:51;;;;;;;2.78;1.75;;;5.80;99.90;;;;;;5460167;26;20018;-73
2024/04/20 04:35:17;;;;;;;8.32;1.70;;;6.10;99.90;;;;;;5457546;26;20530;-72
2024/04/20 04:37:43;;;;;;;3.90;1.52;;;6.10;99.90;;;;;;5460043;26;20083;-73
2024/04/20 04:40:09;;;;;;;2.25;1.23;;;6.20;99.90;;;;;;5458602;26;20021;-72
2024/04/20 04:42:35;;;;;;;2.92;1.23;;;6.40;99.90;;;;;;5460153;26;19998;-72
2024/04/20 04:45:00;;;;;;;3.80;1.83;;;6.10;99.90;;;;;;5458452;26;20061;-73
2024/04/20 04:47:26;;;;;;;2.47;1.38;;;6.10;99.90;;;;;;5457346;26;20477;-72
2024/04/20 04:49:51;;;;;;;3.20;1.33;;;6.10;99.90;;;;;;5455173;26;20010;-72
2024/04/20 04:52:17;;;;;;;4.43;1.58;;;6.00;99.90;;;;;;5450733;26;20006;-73
2024/04/20 04:54:43;;;;;;;3.28;2.22;;;6.00;99.90;;;;;;5454139;26;20002;-73
2024/04/20 04:57:09;;;;;;;3.13;1.33;;;6.00;99.90;;;;;;5453991;26;20037;-73
2024/04/20 04:59:35;;;;;;;2.33;1.30;;;5.90;99.90;;;;;;5452117;26;20395;-73
2024/04/20 05:02:01;;;;;;;2.97;1.40;;;5.80;99.90;;;;;;5451561;26;20013;-73
2024/04/20 05:04:27;;;;;;;3.58;1.52;;;6.00;99.90;;;;;;5453742;26;20542;-73
2024/04/20 05:06:53;;;;;;;2.08;1.10;;;5.90;99.90;;;;;;5456840;26;20021;-73
2024/04/20 05:09:19;;;;;;;2.50;1.20;;;6.00;99.90;;;;;;5460248;26;20437;-73
2024/04/20 05:11:45;;;;;;;12.88;1.80;;;6.20;99.90;;;;;;5458347;26;20770;-73
2024/04/20 05:14:11;;;;;;;4.75;1.48;;;6.10;99.90;;;;;;5457954;26;20006;-73
2024/04/20 05:16:37;;;;;;;2.08;0.98;;;6.30;99.90;;;;;;5457516;26;20837;-73
2024/04/20 05:19:04;;;;;;;4.75;1.23;;;6.30;99.90;;;;;;5457974;26;20014;-73
2024/04/20 05:21:30;;;;;;;2.00;1.02;;;6.50;99.90;;;;;;5457772;26;20013;-73
2024/04/20 05:23:56;;;;;;;2.40;1.10;;;6.50;99.90;;;;;;5457444;26;20388;-73
2024/04/20 05:26:23;;;;;;;4.25;1.50;;;6.70;99.90;;;;;;5454851;26;20019;-73
2024/04/20 05:28:49;;;;;;;2.67;1.45;;;6.60;99.90;;;;;;5457536;26;20060;-73
2024/04/20 05:31:15;;;;;;;2.95;1.27;;;6.40;99.90;;;;;;5456621;26;20656;-73
2024/04/20 05:33:41;;;;;;;3.20;1.13;;;6.70;99.90;;;;;;5457180;26;20046;-72
2024/04/20 05:36:07;;;;;;;4.20;1.50;;;6.60;99.90;;;;;;5458244;26;20002;-72
2024/04/20 05:38:33;;;;;;;2.65;1.05;;;6.70;99.90;;;;;;5458232;26;20657;-73
2024/04/20 05:41:16;;;;;;;2.50;1.13;;;6.90;99.90;;;;;;5454789;26;20012;-73
2024/04/20 05:43:42;;;;;;;3.10;1.20;;;6.70;99.90;;;;;;5459060;26;20044;-73
2024/04/20 05:46:08;;;;;;;2.90;1.20;;;6.80;99.90;;;;;;5458516;26;20015;-73
2024/04/20 05:48:34;;;;;;;2.08;1.25;;;6.90;99.90;;;;;;5456717;26;20040;-73
2024/04/20 05:51:00;;;;;;;2.85;1.30;;;6.80;99.90;;;;;;5456310;26;20081;-73
2024/04/20 05:53:26;;;;;;;3.70;1.45;;;6.80;99.90;;;;;;5456492;26;21623;-73
2024/04/20 05:55:51;;;;;;;3.15;1.17;;;6.80;99.90;;;;;;5450798;26;20069;-73
2024/04/20 05:58:17;;;;;;;2.20;1.08;;;6.70;99.90;;;;;;5451065;26;20013;-73
2024/04/20 06:00:42;;;;;;;4.25;1.10;;;6.40;99.90;;;;;;5453837;26;19999;-73
2024/04/20 06:03:10;;;;;;;3.83;1.10;;;6.30;99.90;;;;;;5451297;26;20010;-73
2024/04/20 06:05:37;;;;;;;5.05;1.73;;;6.40;99.90;;;;;;5452364;26;20364;-73
2024/04/20 06:08:03;;;;;;;2.67;0.98;;;6.60;99.90;;;;;;5453050;26;19994;-73
2024/04/20 06:10:29;;;;;;;1.25;0.70;;;6.80;99.90;;;;;;5457192;26;20486;-72
2024/04/20 06:12:55;;;;;;;1.55;1.00;;;7.20;99.90;;;;;;5455304;26;20498;-73
2024/04/20 06:15:20;;;;;;;2.83;1.02;;;7.30;99.90;;;;;;5456687;26;20006;-73
2024/04/20 06:17:46;;;;;;;1.58;0.60;;;7.70;99.90;;;;;;5457281;26;20508;-73
2024/04/20 06:20:11;;;;;;;2.22;0.55;;;7.90;99.90;;;;;;5457858;26;20006;-73
2024/04/20 06:22:37;;;;;;;2.17;0.90;;;8.00;99.90;;;;;;5455862;26;20326;-72
2024/04/20 06:25:04;;;;;;;1.48;0.75;;;8.20;99.90;;;;;;5453246;26;20082;-72
2024/04/20 06:27:31;;;;;;;3.30;0.77;;;8.30;99.90;;;;;;5456327;26;20861;-74
2024/04/20 06:29:57;;;;;;;1.70;0.90;;;8.50;99.80;;;;;;5463642;26;20006;-74
2024/04/20 06:32:22;;;;;;;1.02;0.60;;;8.70;99.30;;;;;;5454864;26;20078;-73
2024/04/20 06:34:48;;;;;;;3.50;0.90;;;9.00;98.80;;;;;;5458166;26;20318;-73
2024/04/20 06:37:14;;;;;;;6.25;1.40;;;9.10;98.40;;;;;;5458598;26;20339;-73
2024/04/20 06:39:40;;;;;;;4.78;1.48;;;9.20;98.30;;;;;;5449124;26;20017;-73
2024/04/20 06:42:06;;;;;;;3.80;1.30;;;9.60;97.80;;;;;;5452359;26;20002;-73
2024/04/20 06:44:31;;;;;;;5.80;1.02;;;9.80;97.70;;;;;;5455054;26;20005;-77
2024/04/20 06:46:58;;;;;;;3.08;0.90;;;9.90;97.40;;;;;;5455528;26;20080;-73
2024/04/20 06:49:24;;;;;;;2.10;0.73;;;10.00;97.20;;;;;;5451491;26;20492;-73
2024/04/20 06:51:49;;;;;;;1.17;0.40;;;10.30;97.00;;;;;;5447947;26;20007;-74
2024/04/20 06:54:15;;;;;;;3.60;0.82;;;10.50;96.40;;;;;;5453025;26;20018;-73
2024/04/20 06:56:40;;;;;;;1.50;0.57;;;11.30;96.20;;;;;;5450847;26;20080;-71
2024/04/20 06:59:06;;;;;;;2.05;0.70;;;11.70;94.00;;;;;;5450525;26;20771;-70
2024/04/20 07:01:32;;;;;;;1.17;0.50;;;12.90;92.80;;;;;;5450195;26;19994;-71
2024/04/20 07:03:57;;;;;;;3.55;0.50;;;14.80;90.80;;;;;;5452637;26;20048;-71
2024/04/20 07:06:23;;;;;;;0.82;0.25;;;16.30;88.50;;;;;;5452492;26;19990;-71
2024/04/20 07:08:48;;;;;;;1.83;0.63;;;17.00;86.80;;;;;;5450424;26;20011;-71
2024/04/20 07:11:14;;;;;;;2.47;0.93;;;15.30;86.40;;;;;;5451777;26;20017;-72
2024/04/20 07:13:41;;;;;;;1.45;0.63;;;15.60;85.80;;;;;;5452660;26;20028;-72
2024/04/20 07:16:07;;;;;;;2.42;0.60;;;15.10;87.40;;;;;;5452007;26;20006;-72
2024/04/20 07:18:33;;;;;;;1.52;0.63;;;15.20;88.10;;;;;;5448194;26;20669;-71
2024/04/20 07:21:04;;;;;;;1.02;0.38;;;16.50;86.90;;;;;;5452854;26;20033;-72
2024/04/20 07:23:29;;;;;;;1.58;0.60;;;16.20;85.40;;;;;;5452921;26;20006;-71
2024/04/20 07:26:03;;;;;;;1.90;0.45;;;15.50;86.80;;;;;;5450647;26;20808;-71
2024/04/20 07:28:29;;;;;;;0.85;0.38;;;15.40;86.80;;;;;;5450810;26;20006;-71
2024/04/20 07:30:55;;;;;;;0.80;0.35;;;15.40;87.20;;;;;;5452280;26;20007;-72
2024/04/20 07:33:21;;;;;;;6.63;0.70;;;15.50;86.80;;;;;;5451961;26;20009;-71
2024/04/20 07:35:48;;;;;;;1.65;0.45;;;15.50;87.00;;;;;;5450821;26;20019;-72
2024/04/20 07:38:13;;;;;;;1.05;0.38;;;13.60;90.40;;;;;;5451147;26;20103;-71
2024/04/20 07:40:39;;;;;;;1.60;0.68;;;12.40;92.00;;;;;;5451539;26;19999;-71
2024/04/20 07:43:05;;;;;;;1.45;0.47;;;11.90;92.20;;;;;;5451558;26;20002;-71
2024/04/20 07:45:31;;;;;;;2.13;0.70;;;11.40;92.60;;;;;;5449324;26;20010;-72
2024/04/20 07:47:57;;;;;;;1.52;0.50;;;11.50;93.20;;;;;;5445763;26;20508;-71
2024/04/20 07:50:22;;;;;;;1.02;0.50;;;11.40;92.90;;;;;;5453515;26;20006;-71
2024/04/20 07:52:49;;;;;;;1.75;0.60;;;11.40;93.30;;;;;;5452232;26;20049;-72
2024/04/20 07:55:16;;;;;;;0.85;0.32;;;11.70;93.60;;;;;;5448680;26;20028;-72
2024/04/20 07:57:42;;;;;;;1.75;0.47;;;11.80;92.90;;;;;;5451979;26;20223;-71
2024/04/20 08:00:08;;;;;;;0.60;0.38;;;11.60;93.10;;;;;;5451345;26;20024;-71
2024/04/20 08:02:34;;;;;;;0.82;0.40;;;11.40;92.40;;;;;;5452167;26;19998;-71
2024/04/20 08:04:59;;;;;;;0.77;0.40;;;11.40;92.90;;;;;;5454388;26;20074;-71
2024/04/20 08:07:25;;;;;;;1.48;0.47;;;11.60;92.80;;;;;;5454447;26;21704;-71
2024/04/20 08:09:50;;;;;;;2.15;0.93;;;11.70;92.30;;;;;;5452812;26;20499;-71
2024/04/20 08:12:16;;;;;;;1.30;0.47;;;11.70;92.00;;;;;;5456656;26;20086;-71
2024/04/20 08:14:43;;;;;;;2.65;0.52;;;11.70;91.30;;;;;;5455307;26;21039;-71
2024/04/20 08:17:08;;;;;;;0.10;0.05;;;11.80;91.40;;;;;;5453200;26;20002;-71
2024/04/20 08:19:34;;;;;;;0.82;0.20;;;11.80;90.80;;;;;;5451839;26;20016;-72
2024/04/20 08:21:59;;;;;;;0.43;0.25;;;11.90;91.20;;;;;;5456418;26;20483;-73
2024/04/20 08:24:25;;;;;;;1.17;0.40;;;11.70;90.70;;;;;;5455663;26;20002;-73
2024/04/20 08:26:51;;;;;;;1.00;0.40;;;11.90;90.80;;;;;;5454283;26;20437;-72
2024/04/20 08:29:16;;;;;;;4.95;0.35;;;12.00;89.70;;;;;;5450403;26;20730;-73
2024/04/20 08:31:42;;;;;;;0.98;0.20;;;12.10;88.40;;;;;;5456251;26;20005;-72
2024/04/20 08:34:07;;;;;;;1.63;0.70;;;12.70;89.30;;;;;;5450704;26;20021;-72
2024/04/20 08:36:33;;;;;;;0.68;0.30;;;13.10;86.00;;;;;;5455325;26;20666;-72
2024/04/20 08:38:59;;;;;;;2.08;0.40;;;14.10;83.70;;;;;;5445734;26;20017;-72
2024/04/20 08:41:25;;;;;;;2.08;0.20;;;15.10;82.60;;;;;;5461163;26;20550;-73
2024/04/20 08:43:52;;;;;;;1.20;0.20;;;15.10;79.50;;;;;;5460180;26;20002;-73
2024/04/20 08:46:19;;;;;;;1.98;0.30;;;13.50;81.40;;;;;;5458923;26;20010;-71
2024/04/20 08:48:46;;;;;;;0.68;0.20;;;13.60;81.30;;;;;;5456943;26;19994;-71
2024/04/20 08:51:13;;;;;;;0.75;0.20;;;14.30;80.30;;;;;;5442704;26;19998;-72
2024/04/20 08:53:45;;;;;;;8.75;0.68;;;13.70;78.90;;;;;;5457660;26;20010;-72
2024/04/20 08:56:10;;;;;;;0.57;0.13;;;13.50;79.30;;;;;;5458655;26;20174;-72
2024/04/20 08:58:36;;;;;;;0.52;0.10;;;13.40;78.70;;;;;;5456213;26;20012;-72
2024/04/20 09:01:04;;;;;;;0.55;0.40;;;13.70;79.90;;;;;;5457908;26;20685;-73
2024/04/20 09:03:30;;;;;;;2.08;0.10;;;13.30;77.80;;;;;;5446659;26;20017;-72
2024/04/20 09:05:57;;;;;;;0.28;0.13;;;13.30;78.40;;;;;;5456413;26;20005;-72
2024/04/20 09:08:24;;;;;;;0.57;0.10;;;13.40;77.30;;;;;;5451574;26;20020;-72
2024/04/20 09:10:50;;;;;;;8.50;0.73;;;13.50;78.30;;;;;;5460814;26;20002;-73
2024/04/20 09:13:18;;;;;;;1.75;0.40;;;13.60;76.30;;;;;;5459324;26;20013;-72
2024/04/20 09:15:47;;;;;;;0.00;0.00;;;13.80;74.00;;;;;;5457145;26;20002;-73
2024/04/20 09:18:13;;;;;;;0.68;0.20;;;13.70;72.10;;;;;;5461456;26;20772;-72
2024/04/20 09:20:38;;;;;;;2.13;0.60;;;13.90;72.90;;;;;;5457617;26;20009;-72
2024/04/20 09:23:05;;;;;;;0.20;0.08;;;14.00;73.60;;;;;;5458811;26;20006;-72
2024/04/20 09:25:32;;;;;;;0.00;0.00;;;14.00;72.90;;;;;;5460104;26;20047;-72
2024/04/20 09:27:59;;;;;;;0.10;0.05;;;14.00;72.30;;;;;;5450934;26;20006;-72
2024/04/20 09:30:26;;;;;;;0.22;0.00;;;14.10;72.10;;;;;;5451483;26;21525;-73
2024/04/20 09:32:51;;;;;;;0.20;0.08;;;14.10;71.90;;;;;;5452257;26;20429;-72
2024/04/20 09:35:19;;;;;;;2.95;0.10;;;14.30;72.20;;;;;;5450344;26;20041;-72
2024/04/20 09:37:45;;;;;;;0.10;0.00;;;14.40;72.00;;;;;;5450204;26;22567;-72
2024/04/20 09:40:11;;;;;;;0.82;0.10;;;14.10;69.40;;;;;;5452269;26;21534;-72
2024/04/20 09:42:40;;;;;;;0.10;0.03;;;14.10;69.10;;;;;;5450487;26;20099;-73
2024/04/20 09:45:08;;;;;;;0.22;0.08;;;14.20;68.80;;;;;;5448799;26;20014;-73
2024/04/20 09:47:38;;;;;;;0.00;0.00;;;14.10;68.30;;;;;;5449493;26;20325;-72
2024/04/20 09:50:10;;;;;;;1.02;0.40;;;14.20;67.30;;;;;;5448202;26;20163;-72
2024/04/20 09:52:38;;;;;;;1.20;0.35;;;14.50;69.30;;;;;;5441737;26;20055;-72
2024/04/20 09:55:08;;;;;;;0.68;0.20;;;14.50;69.80;;;;;;5449525;26;20551;-72
2024/04/20 09:57:38;;;;;;;0.45;0.30;;;14.30;68.10;;;;;;5452088;26;20006;-72
2024/04/20 10:00:08;;;;;;;0.35;0.10;;;14.40;68.60;;;;;;5447009;26;21515;-72
2024/04/20 10:02:34;;;;;;;0.88;0.08;;;14.20;67.60;;;;;;5446774;26;20082;-72
2024/04/20 10:05:01;;;;;;;0.20;0.00;;;14.10;67.60;;;;;;5448373;26;20010;-73
2024/04/20 10:07:32;;;;;;;0.00;0.00;;;14.30;68.90;;;;;;5448369;26;20542;-73
2024/04/20 10:10:01;;;;;;;0.00;0.00;;;14.40;68.00;;;;;;5449346;26;20003;-72
2024/04/20 10:12:28;;;;;;;0.80;0.10;;;14.40;66.70;;;;;;5445219;26;20022;-73
2024/04/20 10:14:55;;;;;;;0.47;0.10;;;14.50;66.30;;;;;;5453472;26;20057;-73
2024/04/20 10:17:21;;;;;;;0.35;0.17;;;14.40;66.60;;;;;;5448960;26;20002;-74
2024/04/20 10:19:50;;;;;;;0.22;0.00;;;14.70;68.80;;;;;;5448943;26;20002;-73
2024/04/20 10:22:15;;;;;;;0.45;0.10;;;14.90;68.40;;;;;;5452799;26;20021;-73
2024/04/20 10:25:03;;;;;;;0.00;0.00;;;14.70;66.60;;;;;;5451181;26;20038;-73
2024/04/20 10:27:33;;;;;;;0.32;0.10;;;14.80;67.30;;;;;;5452329;26;20877;-73
2024/04/20 10:30:21;;;;;;;0.20;0.08;;;15.00;68.10;;;;;;5449468;26;20001;-73
2024/04/20 10:32:50;;;;;;;0.10;0.10;;;15.20;66.30;;;;;;5450523;26;20017;-73
2024/04/20 10:35:20;;;;;;;0.75;0.20;;;15.10;65.60;;;;;;5449946;26;20002;-73
2024/04/20 10:37:57;;;;;;;1.63;0.10;;;15.40;69.10;;;;;;5450113;26;19998;-73
2024/04/20 10:40:31;;;;;;;1.55;0.20;;;15.40;66.70;;;;;;5423368;26;20558;-73
2024/04/20 10:43:10;;;;;;;2.95;0.40;;;15.00;66.40;;;;;;5451231;26;20458;-73
2024/04/20 10:45:36;;;;;;;0.00;0.00;;;15.60;67.20;;;;;;5449939;26;20069;-73
2024/04/20 10:48:03;;;;;;;1.25;0.05;;;15.50;65.90;;;;;;5451601;26;20010;-72
2024/04/20 10:50:28;;;;;;;0.00;0.00;;;15.20;65.20;;;;;;5451116;26;20009;-73
2024/04/20 10:53:06;;;;;;;2.17;0.10;;;15.00;64.40;;;;;;5446884;26;20029;-73
2024/04/20 10:55:32;;;;;;;0.57;0.10;;;15.40;62.20;;;;;;5448070;26;20007;-73
2024/04/20 10:58:01;;;;;;;0.05;0.00;;;15.10;60.80;;;;;;5449316;26;20013;-73
2024/04/20 11:00:26;;;;;;;0.10;0.00;;;15.70;63.80;;;;;;5453627;26;20009;-73
2024/04/20 11:02:55;;;;;;;0.00;0.00;;;16.00;63.30;;;;;;5450083;26;20006;-73
2024/04/20 11:05:22;;;;;;;0.00;0.00;;;16.20;63.70;;;;;;5448432;26;20005;-73
2024/04/20 11:08:00;;;;;;;24.38;3.17;;;16.30;64.20;;;;;;5453596;26;20426;-73
2024/04/20 11:10:27;;;;;;;1.98;0.20;;;15.40;60.10;;;;;;5448763;26;20618;-73
2024/04/20 11:13:02;;;;;;;0.25;0.10;;;15.00;59.40;;;;;;5444683;26;20726;-73
2024/04/20 11:15:32;;;;;;;2.47;0.10;;;15.00;61.60;;;;;;5446804;26;20002;-73
2024/04/20 11:18:01;;;;;;;0.38;0.00;;;15.30;61.80;;;;;;5451573;26;19994;-72
2024/04/20 11:20:27;;;;;;;0.73;0.20;;;15.20;61.60;;;;;;5451389;26;20485;-73
2024/04/20 11:22:55;;;;;;;0.45;0.08;;;15.00;61.30;;;;;;5450852;26;20002;-73
2024/04/20 11:25:21;;;;;;;0.52;0.10;;;15.20;62.00;;;;;;5452805;26;20002;-73
2024/04/20 11:27:49;;;;;;;0.00;0.00;;;15.00;60.90;;;;;;5450951;26;20118;-73
2024/04/20 11:30:15;;;;;;;0.00;0.00;;;15.30;60.20;;;;;;5450307;26;20448;-73
2024/04/20 11:32:41;;;;;;;0.20;0.10;;;15.70;59.60;;;;;;5452196;26;20002;-73
2024/04/20 11:35:10;;;;;;;0.63;0.05;;;15.90;61.20;;;;;;5449911;26;20013;-73
2024/04/20 11:37:36;;;;;;;1.35;0.00;;;15.30;59.00;;;;;;5447441;26;20809;-73
2024/04/20 11:40:04;;;;;;;0.65;0.30;;;15.20;61.30;;;;;;5446755;26;20017;-73
2024/04/20 11:42:29;;;;;;;1.88;0.38;;;15.20;61.80;;;;;;5454862;26;20571;-76
2024/04/20 11:44:55;;;;;;;0.15;0.00;;;15.70;64.40;;;;;;5447617;26;20002;-73
2024/04/20 11:47:22;;;;;;;0.40;0.10;;;16.30;62.30;;;;;;5448077;26;20054;-73
2024/04/20 11:49:50;;;;;;;0.38;0.13;;;16.20;62.50;;;;;;5440950;26;20092;-74
2024/04/20 11:55:11;;;;;;;0.03;0.03;;;15.70;61.10;;;;;;5448220;26;20013;-73
2024/04/20 11:57:38;;;;;;;0.28;0.10;;;15.70;61.10;;;;;;5445518;26;20010;-73
2024/04/20 12:00:06;;;;;;;0.43;0.10;;;15.90;61.80;;;;;;5451186;26;20017;-73
2024/04/20 12:02:32;;;;;;;0.40;0.03;;;15.90;61.70;;;;;;5451357;26;20002;-73
2024/04/20 12:04:59;;;;;;;0.40;0.10;;;15.70;61.70;;;;;;5446299;26;20011;-72
2024/04/20 12:07:28;;;;;;;0.00;0.00;;;15.70;61.70;;;;;;5445025;26;20058;-73
2024/04/20 12:09:53;;;;;;;0.20;0.10;;;15.80;61.50;;;;;;5449345;26;20661;-75
2024/04/20 12:12:19;;;;;;;0.55;0.10;;;15.80;61.60;;;;;;5445702;26;20028;-73
2024/04/20 12:14:45;;;;;;;0.90;0.10;;;15.40;58.90;;;;;;5445801;26;20078;-74
2024/04/20 12:17:11;;;;;;;0.22;0.10;;;15.60;62.00;;;;;;5448803;26;20727;-73
2024/04/20 12:19:36;;;;;;;0.17;0.10;;;15.60;60.40;;;;;;5446706;26;20078;-74
2024/04/20 12:22:02;;;;;;;0.10;0.10;;;15.60;61.10;;;;;;5440635;26;20007;-74
2024/04/20 12:24:28;;;;;;;0.98;0.13;;;15.40;60.10;;;;;;5448458;26;20010;-74
2024/04/20 12:26:54;;;;;;;0.98;0.50;;;15.50;59.50;;;;;;5448322;26;20096;-73
2024/04/20 12:29:20;;;;;;;0.95;0.30;;;15.70;61.10;;;;;;5445487;26;20014;-74
2024/04/20 12:31:46;;;;;;;0.57;0.10;;;15.80;61.30;;;;;;5450488;26;20451;-74
2024/04/20 12:34:12;;;;;;;0.30;0.13;;;15.90;61.10;;;;;;5446887;26;20011;-73
2024/04/20 12:36:39;;;;;;;0.13;0.00;;;15.90;60.60;;;;;;5448387;26;19998;-74
2024/04/20 12:39:06;;;;;;;0.43;0.10;;;15.70;57.00;;;;;;5447387;26;20081;-73
2024/04/20 12:41:32;;;;;;;0.00;0.00;;;15.70;56.40;;;;;;5446728;26;20011;-74
2024/04/20 12:43:58;;;;;;;1.48;0.00;;;16.30;59.70;;;;;;5444234;26;20233;-74
2024/04/20 12:46:24;;;;;;;5.38;2.20;;;16.20;56.50;;;;;;5449167;26;20541;-73
2024/04/20 12:48:49;;;;;;;2.17;0.30;;;16.90;60.90;;;;;;5447320;26;19994;-74
2024/04/20 12:51:15;;;;;;;1.33;0.20;;;17.00;57.80;;;;;;5444731;26;20014;-74
2024/04/20 12:53:41;;;;;;;0.28;0.00;;;16.90;57.20;;;;;;5438583;26;20000;-74